sensor_id;sensor_type;location;lat;lon;timestamp;P1;durP1;ratioP1;P2;durP2;ratioP2
40997;SDS011;26740;45.944;12.480;2023-12-20T00:01:48;20.65;;;13.68;;
40997;SDS011;26740;45.944;12.480;2023-12-20T00:04:14;21.73;;;13.05;;
40997;SDS011;26740;45.944;12.480;2023-12-20T00:06:40;20.38;;;12.45;;
40997;SDS011;26740;45.944;12.480;2023-12-20T00:09:05;22.75;;;12.70;;
40997;SDS011;26740;45.944;12.480;2023-12-20T00:11:30;18.23;;;12.20;;
40997;SDS011;26740;45.944;12.480;2023-12-20T00:13:56;26.95;;;13.57;;
40997;SDS011;26740;45.944;12.480;2023-12-20T00:16:22;22.75;;;13.85;;
40997;SDS011;26740;45.944;12.480;2023-12-20T00:18:47;85.80;;;27.92;;
40997;SDS011;26740;45.944;12.480;2023-12-20T00:21:13;74.80;;;27.75;;
40997;SDS011;26740;45.944;12.480;2023-12-20T00:23:39;31.45;;;14.65;;
40997;SDS011;26740;45.944;12.480;2023-12-20T00:26:04;175.23;;;44.95;;
40997;SDS011;26740;45.944;12.480;2023-12-20T00:28:30;25.33;;;12.10;;
40997;SDS011;26740;45.944;12.480;2023-12-20T00:30:55;24.95;;;11.07;;
40997;SDS011;26740;45.944;12.480;2023-12-20T00:33:21;50.83;;;18.60;;
40997;SDS011;26740;45.944;12.480;2023-12-20T00:35:46;43.70;;;18.10;;
40997;SDS011;26740;45.944;12.480;2023-12-20T00:38:12;44.80;;;19.00;;
40997;SDS011;26740;45.944;12.480;2023-12-20T00:40:37;61.45;;;26.05;;
40997;SDS011;26740;45.944;12.480;2023-12-20T00:43:03;44.55;;;18.45;;
40997;SDS011;26740;45.944;12.480;2023-12-20T00:45:28;25.63;;;14.57;;
40997;SDS011;26740;45.944;12.480;2023-12-20T00:47:54;27.55;;;12.02;;
40997;SDS011;26740;45.944;12.480;2023-12-20T00:50:19;23.75;;;12.50;;
40997;SDS011;26740;45.944;12.480;2023-12-20T00:52:46;17.30;;;11.13;;
40997;SDS011;26740;45.944;12.480;2023-12-20T00:55:12;16.60;;;10.20;;
40997;SDS011;26740;45.944;12.480;2023-12-20T00:57:38;17.45;;;10.50;;
40997;SDS011;26740;45.944;12.480;2023-12-20T01:00:04;13.88;;;8.18;;
40997;SDS011;26740;45.944;12.480;2023-12-20T01:02:30;15.60;;;9.77;;
40997;SDS011;26740;45.944;12.480;2023-12-20T01:04:56;16.25;;;9.93;;
40997;SDS011;26740;45.944;12.480;2023-12-20T01:07:21;16.08;;;9.90;;
40997;SDS011;26740;45.944;12.480;2023-12-20T01:09:47;14.63;;;9.93;;
40997;SDS011;26740;45.944;12.480;2023-12-20T01:12:12;18.95;;;10.20;;
40997;SDS011;26740;45.944;12.480;2023-12-20T01:14:38;21.02;;;10.13;;
40997;SDS011;26740;45.944;12.480;2023-12-20T01:17:04;15.05;;;9.85;;
40997;SDS011;26740;45.944;12.480;2023-12-20T01:19:30;19.67;;;11.60;;
40997;SDS011;26740;45.944;12.480;2023-12-20T01:21:56;15.05;;;10.05;;
40997;SDS011;26740;45.944;12.480;2023-12-20T01:24:21;16.27;;;9.32;;
40997;SDS011;26740;45.944;12.480;2023-12-20T01:26:47;17.98;;;10.07;;
40997;SDS011;26740;45.944;12.480;2023-12-20T01:29:13;14.50;;;8.85;;
40997;SDS011;26740;45.944;12.480;2023-12-20T01:31:39;16.75;;;9.65;;
40997;SDS011;26740;45.944;12.480;2023-12-20T01:34:05;11.63;;;7.20;;
40997;SDS011;26740;45.944;12.480;2023-12-20T01:36:31;11.70;;;7.53;;
40997;SDS011;26740;45.944;12.480;2023-12-20T01:38:57;12.57;;;7.88;;
40997;SDS011;26740;45.944;12.480;2023-12-20T01:41:23;11.07;;;7.35;;
40997;SDS011;26740;45.944;12.480;2023-12-20T01:43:48;13.77;;;7.05;;
40997;SDS011;26740;45.944;12.480;2023-12-20T01:46:14;12.77;;;7.40;;
40997;SDS011;26740;45.944;12.480;2023-12-20T01:48:40;13.93;;;7.88;;
40997;SDS011;26740;45.944;12.480;2023-12-20T01:51:06;10.60;;;7.22;;
40997;SDS011;26740;45.944;12.480;2023-12-20T01:53:32;9.63;;;6.65;;
40997;SDS011;26740;45.944;12.480;2023-12-20T01:55:59;10.40;;;6.47;;
40997;SDS011;26740;45.944;12.480;2023-12-20T01:58:25;15.18;;;7.43;;
40997;SDS011;26740;45.944;12.480;2023-12-20T02:00:51;11.50;;;7.53;;
40997;SDS011;26740;45.944;12.480;2023-12-20T02:03:17;11.73;;;7.45;;
40997;SDS011;26740;45.944;12.480;2023-12-20T02:05:43;13.52;;;8.70;;
40997;SDS011;26740;45.944;12.480;2023-12-20T02:08:10;11.50;;;7.45;;
40997;SDS011;26740;45.944;12.480;2023-12-20T02:10:36;11.25;;;6.90;;
40997;SDS011;26740;45.944;12.480;2023-12-20T02:13:02;10.55;;;7.65;;
40997;SDS011;26740;45.944;12.480;2023-12-20T02:15:29;17.52;;;8.57;;
40997;SDS011;26740;45.944;12.480;2023-12-20T02:17:54;10.60;;;6.32;;
40997;SDS011;26740;45.944;12.480;2023-12-20T02:20:20;10.77;;;7.20;;
40997;SDS011;26740;45.944;12.480;2023-12-20T02:22:45;13.43;;;7.75;;
40997;SDS011;26740;45.944;12.480;2023-12-20T02:25:11;13.48;;;7.93;;
40997;SDS011;26740;45.944;12.480;2023-12-20T02:27:36;11.57;;;7.82;;
40997;SDS011;26740;45.944;12.480;2023-12-20T02:30:02;12.45;;;6.78;;
40997;SDS011;26740;45.944;12.480;2023-12-20T02:32:28;13.00;;;7.03;;
40997;SDS011;26740;45.944;12.480;2023-12-20T02:34:54;11.82;;;7.93;;
40997;SDS011;26740;45.944;12.480;2023-12-20T02:37:20;15.00;;;7.82;;
40997;SDS011;26740;45.944;12.480;2023-12-20T02:39:46;11.10;;;7.32;;
40997;SDS011;26740;45.944;12.480;2023-12-20T02:42:12;10.23;;;7.22;;
40997;SDS011;26740;45.944;12.480;2023-12-20T02:44:37;13.10;;;8.05;;
40997;SDS011;26740;45.944;12.480;2023-12-20T02:47:03;10.48;;;6.88;;
40997;SDS011;26740;45.944;12.480;2023-12-20T02:49:28;12.00;;;7.85;;
40997;SDS011;26740;45.944;12.480;2023-12-20T02:51:54;15.75;;;6.88;;
40997;SDS011;26740;45.944;12.480;2023-12-20T02:54:19;11.63;;;6.50;;
40997;SDS011;26740;45.944;12.480;2023-12-20T02:56:45;12.52;;;6.78;;
40997;SDS011;26740;45.944;12.480;2023-12-20T02:59:11;11.70;;;7.05;;
40997;SDS011;26740;45.944;12.480;2023-12-20T03:01:41;11.95;;;7.13;;
40997;SDS011;26740;45.944;12.480;2023-12-20T03:04:11;11.43;;;7.82;;
40997;SDS011;26740;45.944;12.480;2023-12-20T03:06:37;10.52;;;6.57;;
40997;SDS011;26740;45.944;12.480;2023-12-20T03:09:03;8.68;;;7.22;;
40997;SDS011;26740;45.944;12.480;2023-12-20T03:11:29;11.88;;;6.72;;
40997;SDS011;26740;45.944;12.480;2023-12-20T03:13:55;10.07;;;6.03;;
40997;SDS011;26740;45.944;12.480;2023-12-20T03:16:21;11.73;;;6.55;;
40997;SDS011;26740;45.944;12.480;2023-12-20T03:18:47;13.32;;;6.90;;
40997;SDS011;26740;45.944;12.480;2023-12-20T03:21:12;15.75;;;8.00;;
40997;SDS011;26740;45.944;12.480;2023-12-20T03:23:38;9.45;;;6.32;;
40997;SDS011;26740;45.944;12.480;2023-12-20T03:26:03;10.80;;;6.72;;
40997;SDS011;26740;45.944;12.480;2023-12-20T03:28:32;13.77;;;6.95;;
40997;SDS011;26740;45.944;12.480;2023-12-20T03:30:58;10.48;;;6.90;;
40997;SDS011;26740;45.944;12.480;2023-12-20T03:33:24;9.18;;;7.15;;
40997;SDS011;26740;45.944;12.480;2023-12-20T03:35:49;9.68;;;6.80;;
40997;SDS011;26740;45.944;12.480;2023-12-20T03:38:15;11.57;;;6.18;;
40997;SDS011;26740;45.944;12.480;2023-12-20T03:40:40;12.30;;;6.50;;
40997;SDS011;26740;45.944;12.480;2023-12-20T03:43:06;9.32;;;5.68;;
40997;SDS011;26740;45.944;12.480;2023-12-20T03:45:32;9.48;;;6.50;;
40997;SDS011;26740;45.944;12.480;2023-12-20T03:47:58;11.07;;;5.70;;
40997;SDS011;26740;45.944;12.480;2023-12-20T03:50:24;9.10;;;5.40;;
40997;SDS011;26740;45.944;12.480;2023-12-20T03:52:50;9.00;;;5.93;;
40997;SDS011;26740;45.944;12.480;2023-12-20T03:55:15;8.80;;;4.88;;
40997;SDS011;26740;45.944;12.480;2023-12-20T03:57:41;11.57;;;5.93;;
40997;SDS011;26740;45.944;12.480;2023-12-20T04:00:07;8.43;;;5.43;;
40997;SDS011;26740;45.944;12.480;2023-12-20T04:02:38;9.68;;;5.63;;
40997;SDS011;26740;45.944;12.480;2023-12-20T04:05:07;9.65;;;5.00;;
40997;SDS011;26740;45.944;12.480;2023-12-20T04:07:33;8.57;;;4.88;;
40997;SDS011;26740;45.944;12.480;2023-12-20T04:10:00;10.35;;;6.40;;
40997;SDS011;26740;45.944;12.480;2023-12-20T04:12:26;10.25;;;6.32;;
40997;SDS011;26740;45.944;12.480;2023-12-20T04:14:52;10.10;;;5.05;;
40997;SDS011;26740;45.944;12.480;2023-12-20T04:17:18;8.65;;;5.78;;
40997;SDS011;26740;45.944;12.480;2023-12-20T04:19:43;9.48;;;5.40;;
40997;SDS011;26740;45.944;12.480;2023-12-20T04:22:09;8.25;;;5.70;;
40997;SDS011;26740;45.944;12.480;2023-12-20T04:24:34;12.43;;;6.85;;
40997;SDS011;26740;45.944;12.480;2023-12-20T04:27:00;14.77;;;6.35;;
40997;SDS011;26740;45.944;12.480;2023-12-20T04:29:26;16.35;;;7.93;;
40997;SDS011;26740;45.944;12.480;2023-12-20T04:31:51;15.38;;;7.45;;
40997;SDS011;26740;45.944;12.480;2023-12-20T04:34:17;10.32;;;6.07;;
40997;SDS011;26740;45.944;12.480;2023-12-20T04:36:43;11.73;;;5.55;;
40997;SDS011;26740;45.944;12.480;2023-12-20T04:39:09;8.52;;;5.20;;
40997;SDS011;26740;45.944;12.480;2023-12-20T04:41:35;11.18;;;5.47;;
40997;SDS011;26740;45.944;12.480;2023-12-20T04:44:01;8.18;;;4.70;;
40997;SDS011;26740;45.944;12.480;2023-12-20T04:46:27;7.25;;;5.00;;
40997;SDS011;26740;45.944;12.480;2023-12-20T04:48:52;8.57;;;5.32;;
40997;SDS011;26740;45.944;12.480;2023-12-20T04:51:18;8.40;;;5.10;;
40997;SDS011;26740;45.944;12.480;2023-12-20T04:53:43;11.98;;;6.05;;
40997;SDS011;26740;45.944;12.480;2023-12-20T04:56:09;13.23;;;6.00;;
40997;SDS011;26740;45.944;12.480;2023-12-20T04:58:35;9.43;;;5.47;;
40997;SDS011;26740;45.944;12.480;2023-12-20T05:01:01;11.77;;;6.03;;
40997;SDS011;26740;45.944;12.480;2023-12-20T05:03:27;7.80;;;4.97;;
40997;SDS011;26740;45.944;12.480;2023-12-20T05:05:52;7.88;;;4.78;;
40997;SDS011;26740;45.944;12.480;2023-12-20T05:08:18;8.10;;;4.13;;
40997;SDS011;26740;45.944;12.480;2023-12-20T05:10:43;7.20;;;4.18;;
40997;SDS011;26740;45.944;12.480;2023-12-20T05:13:09;7.97;;;5.38;;
40997;SDS011;26740;45.944;12.480;2023-12-20T05:15:34;8.35;;;5.03;;
40997;SDS011;26740;45.944;12.480;2023-12-20T05:18:00;7.90;;;5.15;;
40997;SDS011;26740;45.944;12.480;2023-12-20T05:20:25;6.45;;;4.15;;
40997;SDS011;26740;45.944;12.480;2023-12-20T05:22:51;9.65;;;4.57;;
40997;SDS011;26740;45.944;12.480;2023-12-20T05:25:16;8.63;;;4.72;;
40997;SDS011;26740;45.944;12.480;2023-12-20T05:27:42;9.23;;;4.88;;
40997;SDS011;26740;45.944;12.480;2023-12-20T05:30:08;8.52;;;5.13;;
40997;SDS011;26740;45.944;12.480;2023-12-20T05:32:33;8.02;;;5.07;;
40997;SDS011;26740;45.944;12.480;2023-12-20T05:34:59;9.05;;;4.80;;
40997;SDS011;26740;45.944;12.480;2023-12-20T05:37:25;7.97;;;4.60;;
40997;SDS011;26740;45.944;12.480;2023-12-20T05:39:50;5.85;;;4.28;;
40997;SDS011;26740;45.944;12.480;2023-12-20T05:42:16;8.73;;;4.22;;
40997;SDS011;26740;45.944;12.480;2023-12-20T05:44:41;9.43;;;4.95;;
40997;SDS011;26740;45.944;12.480;2023-12-20T05:47:07;8.77;;;5.40;;
40997;SDS011;26740;45.944;12.480;2023-12-20T05:49:32;7.05;;;4.97;;
40997;SDS011;26740;45.944;12.480;2023-12-20T05:51:58;10.25;;;6.78;;
40997;SDS011;26740;45.944;12.480;2023-12-20T05:54:23;12.07;;;6.45;;
40997;SDS011;26740;45.944;12.480;2023-12-20T05:56:49;16.17;;;7.40;;
40997;SDS011;26740;45.944;12.480;2023-12-20T05:59:15;15.00;;;6.80;;
40997;SDS011;26740;45.944;12.480;2023-12-20T06:01:41;12.20;;;7.47;;
40997;SDS011;26740;45.944;12.480;2023-12-20T06:04:06;30.98;;;12.80;;
40997;SDS011;26740;45.944;12.480;2023-12-20T06:06:32;15.27;;;6.13;;
40997;SDS011;26740;45.944;12.480;2023-12-20T06:08:57;15.70;;;8.13;;
40997;SDS011;26740;45.944;12.480;2023-12-20T06:11:23;25.08;;;9.88;;
40997;SDS011;26740;45.944;12.480;2023-12-20T06:13:49;8.93;;;5.22;;
40997;SDS011;26740;45.944;12.480;2023-12-20T06:16:17;8.07;;;5.22;;
40997;SDS011;26740;45.944;12.480;2023-12-20T06:18:43;6.75;;;4.43;;
40997;SDS011;26740;45.944;12.480;2023-12-20T06:21:09;18.55;;;6.88;;
40997;SDS011;26740;45.944;12.480;2023-12-20T06:23:38;19.02;;;8.15;;
40997;SDS011;26740;45.944;12.480;2023-12-20T06:26:03;10.32;;;5.70;;
40997;SDS011;26740;45.944;12.480;2023-12-20T06:28:29;12.50;;;5.10;;
40997;SDS011;26740;45.944;12.480;2023-12-20T06:30:55;9.90;;;5.78;;
40997;SDS011;26740;45.944;12.480;2023-12-20T06:33:21;9.70;;;6.00;;
40997;SDS011;26740;45.944;12.480;2023-12-20T06:35:48;8.10;;;5.90;;
40997;SDS011;26740;45.944;12.480;2023-12-20T06:38:14;19.98;;;6.65;;
40997;SDS011;26740;45.944;12.480;2023-12-20T06:40:39;10.02;;;5.97;;
40997;SDS011;26740;45.944;12.480;2023-12-20T06:43:05;10.18;;;6.28;;
40997;SDS011;26740;45.944;12.480;2023-12-20T06:45:31;45.85;;;14.88;;
40997;SDS011;26740;45.944;12.480;2023-12-20T06:47:57;15.70;;;7.78;;
40997;SDS011;26740;45.944;12.480;2023-12-20T06:50:23;16.33;;;6.72;;
40997;SDS011;26740;45.944;12.480;2023-12-20T06:52:49;9.98;;;6.57;;
40997;SDS011;26740;45.944;12.480;2023-12-20T06:55:15;18.35;;;7.93;;
40997;SDS011;26740;45.944;12.480;2023-12-20T06:57:40;15.77;;;7.63;;
40997;SDS011;26740;45.944;12.480;2023-12-20T07:00:06;16.73;;;7.65;;
40997;SDS011;26740;45.944;12.480;2023-12-20T07:02:33;29.08;;;11.23;;
40997;SDS011;26740;45.944;12.480;2023-12-20T07:04:59;22.38;;;10.55;;
40997;SDS011;26740;45.944;12.480;2023-12-20T07:07:25;20.00;;;9.90;;
40997;SDS011;26740;45.944;12.480;2023-12-20T07:09:51;15.07;;;7.78;;
40997;SDS011;26740;45.944;12.480;2023-12-20T07:12:16;12.73;;;9.15;;
40997;SDS011;26740;45.944;12.480;2023-12-20T07:14:45;20.60;;;10.50;;
40997;SDS011;26740;45.944;12.480;2023-12-20T07:17:11;15.00;;;8.93;;
40997;SDS011;26740;45.944;12.480;2023-12-20T07:19:39;21.55;;;8.05;;
40997;SDS011;26740;45.944;12.480;2023-12-20T07:22:05;25.25;;;13.52;;
40997;SDS011;26740;45.944;12.480;2023-12-20T07:24:31;38.05;;;23.75;;
40997;SDS011;26740;45.944;12.480;2023-12-20T07:26:57;71.60;;;46.13;;
40997;SDS011;26740;45.944;12.480;2023-12-20T07:29:24;55.85;;;40.10;;
40997;SDS011;26740;45.944;12.480;2023-12-20T07:31:50;34.22;;;22.60;;
40997;SDS011;26740;45.944;12.480;2023-12-20T07:34:17;50.78;;;28.75;;
40997;SDS011;26740;45.944;12.480;2023-12-20T07:36:43;43.25;;;23.50;;
40997;SDS011;26740;45.944;12.480;2023-12-20T07:39:08;69.82;;;30.42;;
40997;SDS011;26740;45.944;12.480;2023-12-20T07:41:35;31.38;;;16.88;;
40997;SDS011;26740;45.944;12.480;2023-12-20T07:44:00;24.30;;;14.70;;
40997;SDS011;26740;45.944;12.480;2023-12-20T07:46:26;15.77;;;9.55;;
40997;SDS011;26740;45.944;12.480;2023-12-20T07:48:51;71.80;;;28.50;;
40997;SDS011;26740;45.944;12.480;2023-12-20T07:51:17;64.82;;;25.52;;
40997;SDS011;26740;45.944;12.480;2023-12-20T07:53:43;54.50;;;21.40;;
40997;SDS011;26740;45.944;12.480;2023-12-20T07:56:15;30.42;;;15.63;;
40997;SDS011;26740;45.944;12.480;2023-12-20T07:58:42;36.50;;;19.10;;
40997;SDS011;26740;45.944;12.480;2023-12-20T08:01:07;42.28;;;20.15;;
40997;SDS011;26740;45.944;12.480;2023-12-20T08:03:33;38.05;;;19.35;;
40997;SDS011;26740;45.944;12.480;2023-12-20T08:05:59;29.38;;;18.20;;
40997;SDS011;26740;45.944;12.480;2023-12-20T08:08:25;38.97;;;20.95;;
40997;SDS011;26740;45.944;12.480;2023-12-20T08:10:51;67.47;;;27.27;;
40997;SDS011;26740;45.944;12.480;2023-12-20T08:13:16;44.35;;;20.05;;
40997;SDS011;26740;45.944;12.480;2023-12-20T08:15:42;17.63;;;10.35;;
40997;SDS011;26740;45.944;12.480;2023-12-20T08:18:08;15.00;;;8.27;;
40997;SDS011;26740;45.944;12.480;2023-12-20T08:20:33;12.38;;;8.30;;
40997;SDS011;26740;45.944;12.480;2023-12-20T08:22:59;14.68;;;9.38;;
40997;SDS011;26740;45.944;12.480;2023-12-20T08:25:24;18.98;;;10.10;;
40997;SDS011;26740;45.944;12.480;2023-12-20T08:27:50;13.70;;;9.40;;
40997;SDS011;26740;45.944;12.480;2023-12-20T08:30:15;16.40;;;8.65;;
40997;SDS011;26740;45.944;12.480;2023-12-20T08:32:45;11.60;;;6.90;;
40997;SDS011;26740;45.944;12.480;2023-12-20T08:35:11;10.98;;;7.05;;
40997;SDS011;26740;45.944;12.480;2023-12-20T08:37:36;15.02;;;8.00;;
40997;SDS011;26740;45.944;12.480;2023-12-20T08:40:02;17.02;;;11.65;;
40997;SDS011;26740;45.944;12.480;2023-12-20T08:42:28;26.33;;;16.92;;
40997;SDS011;26740;45.944;12.480;2023-12-20T08:44:56;15.40;;;7.88;;
40997;SDS011;26740;45.944;12.480;2023-12-20T08:47:23;12.35;;;9.00;;
40997;SDS011;26740;45.944;12.480;2023-12-20T08:49:49;10.82;;;8.52;;
40997;SDS011;26740;45.944;12.480;2023-12-20T08:52:15;12.60;;;8.88;;
40997;SDS011;26740;45.944;12.480;2023-12-20T08:54:40;12.23;;;9.32;;
40997;SDS011;26740;45.944;12.480;2023-12-20T08:57:06;12.85;;;9.98;;
40997;SDS011;26740;45.944;12.480;2023-12-20T08:59:32;17.98;;;14.20;;
40997;SDS011;26740;45.944;12.480;2023-12-20T09:01:58;16.05;;;9.95;;
40997;SDS011;26740;45.944;12.480;2023-12-20T09:04:23;19.38;;;8.82;;
40997;SDS011;26740;45.944;12.480;2023-12-20T09:06:49;13.27;;;9.63;;
40997;SDS011;26740;45.944;12.480;2023-12-20T09:09:15;14.07;;;9.77;;
40997;SDS011;26740;45.944;12.480;2023-12-20T09:11:40;16.63;;;12.05;;
40997;SDS011;26740;45.944;12.480;2023-12-20T09:14:07;28.92;;;17.40;;
40997;SDS011;26740;45.944;12.480;2023-12-20T09:16:32;31.70;;;20.40;;
40997;SDS011;26740;45.944;12.480;2023-12-20T09:18:58;18.48;;;10.48;;
40997;SDS011;26740;45.944;12.480;2023-12-20T09:21:23;11.65;;;7.82;;
40997;SDS011;26740;45.944;12.480;2023-12-20T09:23:49;13.35;;;7.68;;
40997;SDS011;26740;45.944;12.480;2023-12-20T09:26:15;23.15;;;15.30;;
40997;SDS011;26740;45.944;12.480;2023-12-20T09:28:40;15.85;;;8.70;;
40997;SDS011;26740;45.944;12.480;2023-12-20T09:31:06;17.02;;;10.27;;
40997;SDS011;26740;45.944;12.480;2023-12-20T09:33:32;11.40;;;7.80;;
40997;SDS011;26740;45.944;12.480;2023-12-20T09:35:58;12.20;;;9.00;;
40997;SDS011;26740;45.944;12.480;2023-12-20T09:38:24;9.60;;;7.22;;
40997;SDS011;26740;45.944;12.480;2023-12-20T09:40:50;10.90;;;6.82;;
40997;SDS011;26740;45.944;12.480;2023-12-20T09:43:16;14.07;;;9.57;;
40997;SDS011;26740;45.944;12.480;2023-12-20T09:45:46;14.30;;;9.20;;
40997;SDS011;26740;45.944;12.480;2023-12-20T09:48:12;15.90;;;9.93;;
40997;SDS011;26740;45.944;12.480;2023-12-20T09:50:40;15.18;;;9.82;;
40997;SDS011;26740;45.944;12.480;2023-12-20T09:53:07;16.25;;;9.23;;
40997;SDS011;26740;45.944;12.480;2023-12-20T09:55:35;14.70;;;9.52;;
40997;SDS011;26740;45.944;12.480;2023-12-20T09:58:02;16.30;;;9.85;;
40997;SDS011;26740;45.944;12.480;2023-12-20T10:00:27;18.00;;;10.75;;
40997;SDS011;26740;45.944;12.480;2023-12-20T10:02:59;14.10;;;10.18;;
40997;SDS011;26740;45.944;12.480;2023-12-20T10:05:29;18.48;;;9.40;;
40997;SDS011;26740;45.944;12.480;2023-12-20T10:07:56;13.80;;;8.82;;
40997;SDS011;26740;45.944;12.480;2023-12-20T10:10:23;11.45;;;9.10;;
40997;SDS011;26740;45.944;12.480;2023-12-20T14:13:29;13.05;;;8.15;;
40997;SDS011;26740;45.944;12.480;2023-12-20T14:15:54;15.98;;;8.18;;
40997;SDS011;26740;45.944;12.480;2023-12-20T14:18:20;11.60;;;9.00;;
40997;SDS011;26740;45.944;12.480;2023-12-20T14:20:46;15.80;;;10.68;;
40997;SDS011;26740;45.944;12.480;2023-12-20T14:23:13;14.48;;;9.98;;
40997;SDS011;26740;45.944;12.480;2023-12-20T14:25:42;16.10;;;11.50;;
40997;SDS011;26740;45.944;12.480;2023-12-20T14:28:07;15.25;;;11.48;;
40997;SDS011;26740;45.944;12.480;2023-12-20T14:30:33;14.32;;;10.98;;
40997;SDS011;26740;45.944;12.480;2023-12-20T14:33:00;16.77;;;11.77;;
40997;SDS011;26740;45.944;12.480;2023-12-20T14:35:25;15.55;;;12.98;;
40997;SDS011;26740;45.944;12.480;2023-12-20T14:37:51;18.35;;;11.52;;
40997;SDS011;26740;45.944;12.480;2023-12-20T14:40:16;13.50;;;10.20;;
40997;SDS011;26740;45.944;12.480;2023-12-20T14:42:42;13.48;;;10.57;;
40997;SDS011;26740;45.944;12.480;2023-12-20T14:45:08;15.32;;;10.30;;
40997;SDS011;26740;45.944;12.480;2023-12-20T14:47:34;13.85;;;9.98;;
40997;SDS011;26740;45.944;12.480;2023-12-20T14:50:02;16.83;;;11.85;;
40997;SDS011;26740;45.944;12.480;2023-12-20T14:52:28;14.63;;;11.70;;
40997;SDS011;26740;45.944;12.480;2023-12-20T14:54:54;17.50;;;12.20;;
40997;SDS011;26740;45.944;12.480;2023-12-20T14:57:20;15.63;;;11.95;;
40997;SDS011;26740;45.944;12.480;2023-12-20T14:59:45;14.07;;;10.73;;
40997;SDS011;26740;45.944;12.480;2023-12-20T15:02:11;13.65;;;10.68;;
40997;SDS011;26740;45.944;12.480;2023-12-20T15:04:36;15.82;;;11.68;;
40997;SDS011;26740;45.944;12.480;2023-12-20T15:07:02;16.10;;;11.27;;
40997;SDS011;26740;45.944;12.480;2023-12-20T15:09:30;21.55;;;11.13;;
40997;SDS011;26740;45.944;12.480;2023-12-20T15:11:56;19.10;;;12.40;;
40997;SDS011;26740;45.944;12.480;2023-12-20T15:14:21;26.50;;;14.75;;
40997;SDS011;26740;45.944;12.480;2023-12-20T15:16:47;25.33;;;13.40;;
40997;SDS011;26740;45.944;12.480;2023-12-20T15:19:13;23.60;;;13.18;;
40997;SDS011;26740;45.944;12.480;2023-12-20T15:21:39;17.90;;;12.57;;
40997;SDS011;26740;45.944;12.480;2023-12-20T15:24:08;21.20;;;12.00;;
40997;SDS011;26740;45.944;12.480;2023-12-20T15:26:45;17.77;;;13.07;;
40997;SDS011;26740;45.944;12.480;2023-12-20T15:29:12;16.25;;;12.38;;
40997;SDS011;26740;45.944;12.480;2023-12-20T15:31:45;16.98;;;12.55;;
40997;SDS011;26740;45.944;12.480;2023-12-20T15:34:11;17.00;;;12.25;;
40997;SDS011;26740;45.944;12.480;2023-12-20T15:36:38;18.77;;;13.10;;
40997;SDS011;26740;45.944;12.480;2023-12-20T15:39:04;25.98;;;13.60;;
40997;SDS011;26740;45.944;12.480;2023-12-20T15:41:30;22.50;;;15.85;;
40997;SDS011;26740;45.944;12.480;2023-12-20T15:43:56;24.10;;;15.05;;
40997;SDS011;26740;45.944;12.480;2023-12-20T15:46:21;25.48;;;14.95;;
40997;SDS011;26740;45.944;12.480;2023-12-20T15:48:48;23.02;;;16.33;;
40997;SDS011;26740;45.944;12.480;2023-12-20T15:51:14;24.05;;;16.08;;
40997;SDS011;26740;45.944;12.480;2023-12-20T15:53:40;21.35;;;14.68;;
40997;SDS011;26740;45.944;12.480;2023-12-20T15:56:05;20.95;;;14.88;;
40997;SDS011;26740;45.944;12.480;2023-12-20T15:58:31;22.02;;;15.07;;
40997;SDS011;26740;45.944;12.480;2023-12-20T16:00:58;21.35;;;14.85;;
40997;SDS011;26740;45.944;12.480;2023-12-20T16:03:23;21.02;;;15.82;;
40997;SDS011;26740;45.944;12.480;2023-12-20T16:05:49;19.30;;;14.65;;
40997;SDS011;26740;45.944;12.480;2023-12-20T16:08:15;27.27;;;14.35;;
40997;SDS011;26740;45.944;12.480;2023-12-20T16:10:40;20.95;;;14.52;;
40997;SDS011;26740;45.944;12.480;2023-12-20T16:13:06;21.65;;;15.68;;
40997;SDS011;26740;45.944;12.480;2023-12-20T16:15:32;22.83;;;15.15;;
40997;SDS011;26740;45.944;12.480;2023-12-20T16:17:58;25.25;;;16.90;;
40997;SDS011;26740;45.944;12.480;2023-12-20T16:20:24;24.08;;;15.32;;
40997;SDS011;26740;45.944;12.480;2023-12-20T16:22:49;21.83;;;14.88;;
40997;SDS011;26740;45.944;12.480;2023-12-20T16:25:16;21.77;;;13.65;;
40997;SDS011;26740;45.944;12.480;2023-12-20T16:27:41;23.40;;;16.80;;
40997;SDS011;26740;45.944;12.480;2023-12-20T16:30:08;24.35;;;17.27;;
40997;SDS011;26740;45.944;12.480;2023-12-20T16:32:33;22.00;;;15.98;;
40997;SDS011;26740;45.944;12.480;2023-12-20T16:34:59;25.92;;;17.45;;
40997;SDS011;26740;45.944;12.480;2023-12-20T16:37:26;25.02;;;16.13;;
40997;SDS011;26740;45.944;12.480;2023-12-20T16:39:52;23.40;;;17.85;;
40997;SDS011;26740;45.944;12.480;2023-12-20T16:42:17;28.60;;;17.63;;
40997;SDS011;26740;45.944;12.480;2023-12-20T16:44:43;26.38;;;19.17;;
40997;SDS011;26740;45.944;12.480;2023-12-20T16:47:09;32.78;;;18.80;;
40997;SDS011;26740;45.944;12.480;2023-12-20T16:49:35;27.17;;;18.02;;
40997;SDS011;26740;45.944;12.480;2023-12-20T16:52:00;27.45;;;18.17;;
40997;SDS011;26740;45.944;12.480;2023-12-20T16:54:26;24.88;;;17.52;;
40997;SDS011;26740;45.944;12.480;2023-12-20T16:56:51;29.05;;;19.13;;
40997;SDS011;26740;45.944;12.480;2023-12-20T16:59:18;26.13;;;17.58;;
40997;SDS011;26740;45.944;12.480;2023-12-20T17:01:43;26.88;;;16.98;;
40997;SDS011;26740;45.944;12.480;2023-12-20T17:04:13;25.30;;;16.67;;
40997;SDS011;26740;45.944;12.480;2023-12-20T17:06:38;23.75;;;16.58;;
40997;SDS011;26740;45.944;12.480;2023-12-20T17:09:04;26.95;;;17.75;;
40997;SDS011;26740;45.944;12.480;2023-12-20T17:11:29;25.25;;;16.52;;
40997;SDS011;26740;45.944;12.480;2023-12-20T17:13:55;24.88;;;16.98;;
40997;SDS011;26740;45.944;12.480;2023-12-20T17:16:23;32.72;;;18.45;;
40997;SDS011;26740;45.944;12.480;2023-12-20T17:18:48;24.45;;;16.38;;
40997;SDS011;26740;45.944;12.480;2023-12-20T17:21:17;23.27;;;15.52;;
40997;SDS011;26740;45.944;12.480;2023-12-20T17:23:44;18.30;;;14.20;;
40997;SDS011;26740;45.944;12.480;2023-12-20T17:26:11;20.35;;;14.50;;
40997;SDS011;26740;45.944;12.480;2023-12-20T17:28:37;20.48;;;13.93;;
40997;SDS011;26740;45.944;12.480;2023-12-20T17:31:03;24.10;;;13.80;;
40997;SDS011;26740;45.944;12.480;2023-12-20T17:33:28;23.90;;;14.00;;
40997;SDS011;26740;45.944;12.480;2023-12-20T17:35:54;23.10;;;14.77;;
40997;SDS011;26740;45.944;12.480;2023-12-20T17:38:19;22.42;;;14.48;;
40997;SDS011;26740;45.944;12.480;2023-12-20T17:40:45;24.55;;;15.05;;
40997;SDS011;26740;45.944;12.480;2023-12-20T17:43:11;19.83;;;15.15;;
40997;SDS011;26740;45.944;12.480;2023-12-20T17:45:37;27.45;;;15.50;;
40997;SDS011;26740;45.944;12.480;2023-12-20T17:48:05;24.75;;;15.57;;
40997;SDS011;26740;45.944;12.480;2023-12-20T17:50:31;24.90;;;16.20;;
40997;SDS011;26740;45.944;12.480;2023-12-20T17:52:57;26.98;;;16.73;;
40997;SDS011;26740;45.944;12.480;2023-12-20T17:55:28;21.83;;;15.30;;
40997;SDS011;26740;45.944;12.480;2023-12-20T18:00:20;22.25;;;14.73;;
40997;SDS011;26740;45.944;12.480;2023-12-20T18:02:49;20.25;;;13.13;;
40997;SDS011;26740;45.944;12.480;2023-12-20T18:05:16;20.88;;;13.77;;
40997;SDS011;26740;45.944;12.480;2023-12-20T18:07:42;20.90;;;13.40;;
40997;SDS011;26740;45.944;12.480;2023-12-20T18:10:09;19.85;;;12.75;;
40997;SDS011;26740;45.944;12.480;2023-12-20T18:12:35;24.00;;;14.65;;
40997;SDS011;26740;45.944;12.480;2023-12-20T18:15:00;22.65;;;14.88;;